BTK284 WIBB-WIPP
Flight info
| Callsign | BTK284 |
|---|---|
| Flight time | 0h 51m |
| Altitude | 33000 |
| Route | KUALA |
| Aircraft | B738/M-SDE2E3FGHIRWXY/LB1 |
Departure
| Time | 2026-05-06 06:51 |
|---|---|
| Airport | Sultan Syarif Kasim II International Airport / Roesmin Nurjadin AFB (WIBB) |
Arrival
| Time | 2026-05-06 07:43 |
|---|---|
| Airport | Sultan Mahmud Badaruddin II Airport (WIPP) |
| Time | Latitude | Longitude | Altitude | Speed | Heading |
|---|---|---|---|---|---|
| 2026-05-06 06:33 | 0.46404 | 101.44677 | 126 ft | 0 kts | 92° |
| 2026-05-06 06:43 | 0.46404 | 101.44662 | 138 ft | 2 kts | 92° |
| 2026-05-06 06:43 | 0.46405 | 101.44646 | 111 ft | 2 kts | 93° |
| 2026-05-06 06:43 | 0.46406 | 101.44629 | 124 ft | 2 kts | 94° |
| 2026-05-06 06:44 | 0.46408 | 101.44613 | 124 ft | 2 kts | 98° |
| 2026-05-06 06:44 | 0.46412 | 101.44597 | 123 ft | 2 kts | 128° |
| 2026-05-06 06:44 | 0.46422 | 101.44591 | 124 ft | 1 kts | 179° |
| 2026-05-06 06:44 | 0.46424 | 101.44591 | 124 ft | 0 kts | 180° |
| 2026-05-06 06:46 | 0.46421 | 101.44591 | 124 ft | 2 kts | 180° |
| 2026-05-06 06:47 | 0.46378 | 101.44561 | 127 ft | 13 kts | 249° |
| 2026-05-06 06:47 | 0.46349 | 101.44465 | 125 ft | 16 kts | 209° |
| 2026-05-06 06:47 | 0.46221 | 101.44457 | 127 ft | 24 kts | 181° |
| 2026-05-06 06:47 | 0.46025 | 101.44451 | 123 ft | 31 kts | 182° |
| 2026-05-06 06:48 | 0.45808 | 101.44444 | 122 ft | 31 kts | 181° |
| 2026-05-06 06:48 | 0.45592 | 101.44438 | 122 ft | 31 kts | 182° |
| 2026-05-06 06:48 | 0.45384 | 101.44431 | 125 ft | 29 kts | 181° |
| 2026-05-06 06:48 | 0.45186 | 101.44426 | 127 ft | 28 kts | 181° |
| 2026-05-06 06:49 | 0.45005 | 101.44420 | 128 ft | 23 kts | 181° |
| 2026-05-06 06:49 | 0.44849 | 101.44422 | 128 ft | 22 kts | 163° |
| 2026-05-06 06:49 | 0.44763 | 101.44436 | 125 ft | 8 kts | 236° |
| 2026-05-06 06:49 | 0.44784 | 101.44415 | 127 ft | 6 kts | 358° |
| 2026-05-06 06:50 | 0.44820 | 101.44415 | 127 ft | 0 kts | 1° |
| 2026-05-06 06:51 | 0.44863 | 101.44416 | 128 ft | 29 kts | 1° |
| 2026-05-06 06:51 | 0.45362 | 101.44431 | 125 ft | 112 kts | 1° |
| 2026-05-06 06:51 | 0.46379 | 101.44461 | 153 ft | 176 kts | 1° |
| 2026-05-06 06:51 | 0.47609 | 101.44500 | 1043 ft | 167 kts | 2° |
| 2026-05-06 06:52 | 0.48755 | 101.44589 | 2017 ft | 171 kts | 17° |
| 2026-05-06 06:52 | 0.49720 | 101.45385 | 2408 ft | 205 kts | 64° |
| 2026-05-06 06:52 | 0.50187 | 101.46833 | 2693 ft | 234 kts | 75° |
| 2026-05-06 06:52 | 0.50643 | 101.48446 | 3221 ft | 248 kts | 75° |
| 2026-05-06 06:53 | 0.51162 | 101.50199 | 3661 ft | 268 kts | 74° |
| 2026-05-06 06:53 | 0.51722 | 101.52006 | 4506 ft | 275 kts | 73° |
| 2026-05-06 06:53 | 0.52298 | 101.53797 | 5518 ft | 276 kts | 73° |
| 2026-05-06 06:53 | 0.52913 | 101.55664 | 6410 ft | 282 kts | 72° |
| 2026-05-06 06:54 | 0.53537 | 101.57534 | 7316 ft | 284 kts | 72° |
| 2026-05-06 06:54 | 0.54165 | 101.59411 | 8251 ft | 286 kts | 72° |
| 2026-05-06 06:54 | 0.54661 | 101.61343 | 9121 ft | 290 kts | 88° |
| 2026-05-06 06:54 | 0.54344 | 101.63317 | 9988 ft | 291 kts | 114° |
| 2026-05-06 06:55 | 0.53171 | 101.64968 | 10741 ft | 298 kts | 140° |
| 2026-05-06 06:55 | 0.51341 | 101.65959 | 11462 ft | 305 kts | 160° |
| 2026-05-06 06:55 | 0.49319 | 101.66664 | 12239 ft | 310 kts | 160° |
| 2026-05-06 06:55 | 0.47293 | 101.67361 | 13040 ft | 314 kts | 160° |
| 2026-05-06 06:56 | 0.45219 | 101.68073 | 13824 ft | 317 kts | 160° |
| 2026-05-06 06:56 | 0.43121 | 101.68793 | 14523 ft | 321 kts | 160° |
| 2026-05-06 06:56 | 0.40993 | 101.69526 | 15231 ft | 324 kts | 160° |
| 2026-05-06 06:56 | 0.38851 | 101.70264 | 15960 ft | 327 kts | 159° |
| 2026-05-06 06:57 | 0.36686 | 101.71012 | 16663 ft | 331 kts | 159° |
| 2026-05-06 06:57 | 0.34498 | 101.71768 | 17340 ft | 335 kts | 159° |
| 2026-05-06 06:57 | 0.32281 | 101.72534 | 18027 ft | 339 kts | 159° |
| 2026-05-06 06:57 | 0.30038 | 101.73310 | 18618 ft | 343 kts | 159° |
| 2026-05-06 06:58 | 0.28538 | 101.73828 | 19016 ft | 345 kts | 159° |
| 2026-05-06 06:58 | 0.26256 | 101.74617 | 19618 ft | 348 kts | 159° |
| 2026-05-06 06:58 | 0.23955 | 101.75412 | 20198 ft | 352 kts | 159° |
| 2026-05-06 06:58 | 0.21630 | 101.76217 | 20775 ft | 355 kts | 159° |
| 2026-05-06 06:59 | 0.19283 | 101.77028 | 21354 ft | 359 kts | 159° |
| 2026-05-06 06:59 | 0.16913 | 101.77846 | 21913 ft | 362 kts | 159° |
| 2026-05-06 06:59 | 0.14526 | 101.78688 | 22470 ft | 365 kts | 155° |
| 2026-05-06 06:59 | 0.12280 | 101.79868 | 23011 ft | 366 kts | 144° |
| 2026-05-06 07:00 | 0.10273 | 101.81425 | 23522 ft | 366 kts | 134° |
| 2026-05-06 07:00 | 0.08540 | 101.83295 | 23981 ft | 367 kts | 129° |
| 2026-05-06 07:00 | 0.06876 | 101.85241 | 24432 ft | 370 kts | 128° |
| 2026-05-06 07:00 | 0.05214 | 101.87210 | 24877 ft | 373 kts | 128° |
| 2026-05-06 07:01 | 0.03530 | 101.89193 | 25321 ft | 376 kts | 129° |
| 2026-05-06 07:01 | 0.01825 | 101.91183 | 25759 ft | 378 kts | 129° |
| 2026-05-06 07:01 | 0.00107 | 101.93174 | 26205 ft | 381 kts | 129° |
| 2026-05-06 07:01 | -0.01593 | 101.95138 | 26639 ft | 384 kts | 129° |
| 2026-05-06 07:02 | -0.03380 | 101.97199 | 27075 ft | 387 kts | 129° |
| 2026-05-06 07:02 | -0.05145 | 101.99234 | 27498 ft | 390 kts | 129° |
| 2026-05-06 07:02 | -0.06929 | 102.01292 | 27910 ft | 393 kts | 130° |
| 2026-05-06 07:02 | -0.08724 | 102.03362 | 28325 ft | 396 kts | 130° |
| 2026-05-06 07:03 | -0.10532 | 102.05448 | 28728 ft | 398 kts | 130° |
| 2026-05-06 07:03 | -0.12350 | 102.07546 | 29122 ft | 401 kts | 130° |
| 2026-05-06 07:03 | -0.14174 | 102.09651 | 29520 ft | 404 kts | 130° |
| 2026-05-06 07:03 | -0.16018 | 102.11780 | 29917 ft | 407 kts | 130° |
| 2026-05-06 07:04 | -0.17876 | 102.13924 | 30247 ft | 409 kts | 130° |
| 2026-05-06 07:04 | -0.19748 | 102.16085 | 30571 ft | 412 kts | 130° |
| 2026-05-06 07:04 | -0.21625 | 102.18250 | 30885 ft | 414 kts | 130° |
| 2026-05-06 07:04 | -0.23318 | 102.20204 | 31157 ft | 417 kts | 130° |
| 2026-05-06 07:05 | -0.25222 | 102.22396 | 31470 ft | 419 kts | 130° |
| 2026-05-06 07:05 | -0.27115 | 102.24574 | 31783 ft | 421 kts | 130° |
| 2026-05-06 07:05 | -0.29064 | 102.26817 | 32106 ft | 423 kts | 130° |
| 2026-05-06 07:05 | -0.30971 | 102.29011 | 32407 ft | 425 kts | 131° |
| 2026-05-06 07:06 | -0.32911 | 102.31244 | 32709 ft | 426 kts | 131° |
| 2026-05-06 07:06 | -0.36836 | 102.35770 | 32816 ft | 437 kts | 131° |
| 2026-05-06 07:07 | -0.40865 | 102.40423 | 32821 ft | 449 kts | 131° |
| 2026-05-06 07:07 | -0.44998 | 102.45196 | 32823 ft | 459 kts | 131° |
| 2026-05-06 07:08 | -0.49216 | 102.50065 | 32820 ft | 468 kts | 131° |
| 2026-05-06 07:08 | -0.53521 | 102.55002 | 32815 ft | 474 kts | 131° |
| 2026-05-06 07:09 | -0.57870 | 102.59976 | 32809 ft | 477 kts | 131° |
| 2026-05-06 07:09 | -0.62250 | 102.64991 | 32817 ft | 480 kts | 131° |
| 2026-05-06 07:10 | -0.66652 | 102.70035 | 32811 ft | 483 kts | 131° |
| 2026-05-06 07:10 | -0.71069 | 102.75098 | 32814 ft | 484 kts | 131° |
| 2026-05-06 07:11 | -0.75492 | 102.80167 | 32813 ft | 484 kts | 131° |
| 2026-05-06 07:11 | -0.79896 | 102.85246 | 32814 ft | 484 kts | 130° |
| 2026-05-06 07:12 | -0.84291 | 102.90337 | 32813 ft | 484 kts | 130° |
| 2026-05-06 07:12 | -0.88700 | 102.95412 | 32818 ft | 483 kts | 133° |
| 2026-05-06 07:13 | -0.93831 | 102.99714 | 32823 ft | 483 kts | 144° |
| 2026-05-06 07:13 | -0.99352 | 103.03553 | 32818 ft | 483 kts | 144° |
| 2026-05-06 07:14 | -1.04844 | 103.07433 | 32812 ft | 484 kts | 144° |
| 2026-05-06 07:14 | -1.10309 | 103.11360 | 32813 ft | 484 kts | 144° |
| 2026-05-06 07:15 | -1.15695 | 103.15392 | 32806 ft | 484 kts | 137° |
| 2026-05-06 07:15 | -1.20434 | 103.20157 | 32812 ft | 484 kts | 133° |
| 2026-05-06 07:16 | -1.25036 | 103.25053 | 32804 ft | 478 kts | 133° |
| 2026-05-06 07:16 | -1.27288 | 103.27410 | 32791 ft | 459 kts | 133° |
| 2026-05-06 07:16 | -1.29467 | 103.29661 | 32790 ft | 441 kts | 134° |
| 2026-05-06 07:17 | -1.33715 | 103.34002 | 32714 ft | 435 kts | 134° |
| 2026-05-06 07:17 | -1.35830 | 103.36156 | 32375 ft | 431 kts | 134° |
| 2026-05-06 07:17 | -1.37918 | 103.38283 | 31945 ft | 427 kts | 134° |
| 2026-05-06 07:17 | -1.39991 | 103.40395 | 31537 ft | 423 kts | 133° |
| 2026-05-06 07:18 | -1.42042 | 103.42487 | 31119 ft | 420 kts | 133° |
| 2026-05-06 07:18 | -1.44079 | 103.44565 | 30703 ft | 417 kts | 133° |
| 2026-05-06 07:18 | -1.46110 | 103.46637 | 30273 ft | 416 kts | 133° |
| 2026-05-06 07:18 | -1.48126 | 103.48694 | 29841 ft | 413 kts | 133° |
| 2026-05-06 07:19 | -1.50132 | 103.50741 | 29348 ft | 411 kts | 133° |
| 2026-05-06 07:19 | -1.52125 | 103.52774 | 28881 ft | 408 kts | 133° |
| 2026-05-06 07:19 | -1.54100 | 103.54790 | 28431 ft | 404 kts | 133° |
| 2026-05-06 07:19 | -1.56060 | 103.56791 | 27987 ft | 401 kts | 133° |
| 2026-05-06 07:20 | -1.58001 | 103.58772 | 27562 ft | 398 kts | 133° |
| 2026-05-06 07:20 | -1.59928 | 103.60739 | 27139 ft | 395 kts | 133° |
| 2026-05-06 07:20 | -1.61843 | 103.62693 | 26712 ft | 392 kts | 133° |
| 2026-05-06 07:20 | -1.63792 | 103.64586 | 26281 ft | 391 kts | 140° |
| 2026-05-06 07:21 | -1.66083 | 103.66041 | 25874 ft | 389 kts | 149° |
| 2026-05-06 07:21 | -1.68456 | 103.67337 | 25415 ft | 389 kts | 150° |
| 2026-05-06 07:21 | -1.70833 | 103.68610 | 24999 ft | 387 kts | 150° |
| 2026-05-06 07:21 | -1.73195 | 103.69884 | 24568 ft | 385 kts | 150° |
| 2026-05-06 07:22 | -1.75543 | 103.71168 | 24139 ft | 384 kts | 149° |
| 2026-05-06 07:22 | -1.77877 | 103.72459 | 23720 ft | 383 kts | 149° |
| 2026-05-06 07:22 | -1.80195 | 103.73749 | 23285 ft | 381 kts | 149° |
| 2026-05-06 07:22 | -1.82507 | 103.75041 | 22808 ft | 379 kts | 149° |
| 2026-05-06 07:23 | -1.84804 | 103.76324 | 22377 ft | 377 kts | 149° |
| 2026-05-06 07:23 | -1.87083 | 103.77597 | 21956 ft | 374 kts | 149° |
| 2026-05-06 07:23 | -1.89284 | 103.78825 | 21547 ft | 371 kts | 149° |
| 2026-05-06 07:23 | -1.91583 | 103.80107 | 21128 ft | 368 kts | 149° |
| 2026-05-06 07:24 | -1.93782 | 103.81331 | 20741 ft | 365 kts | 149° |
| 2026-05-06 07:24 | -1.96022 | 103.82576 | 20339 ft | 363 kts | 149° |
| 2026-05-06 07:24 | -1.98190 | 103.83781 | 19954 ft | 360 kts | 149° |
| 2026-05-06 07:24 | -2.00377 | 103.84997 | 19544 ft | 359 kts | 149° |
| 2026-05-06 07:25 | -2.02552 | 103.86207 | 19141 ft | 357 kts | 149° |
| 2026-05-06 07:25 | -2.04722 | 103.87415 | 18737 ft | 356 kts | 149° |
| 2026-05-06 07:25 | -2.06817 | 103.88702 | 18457 ft | 349 kts | 142° |
| 2026-05-06 07:25 | -2.08723 | 103.90160 | 18226 ft | 342 kts | 140° |
| 2026-05-06 07:26 | -2.10580 | 103.91639 | 17842 ft | 340 kts | 140° |
| 2026-05-06 07:26 | -2.12422 | 103.93119 | 17420 ft | 339 kts | 140° |
| 2026-05-06 07:26 | -2.14258 | 103.94589 | 17025 ft | 337 kts | 140° |
| 2026-05-06 07:26 | -2.16089 | 103.96046 | 16643 ft | 335 kts | 140° |
| 2026-05-06 07:27 | -2.17903 | 103.97483 | 16272 ft | 333 kts | 140° |
| 2026-05-06 07:27 | -2.19716 | 103.98914 | 15900 ft | 331 kts | 140° |
| 2026-05-06 07:27 | -2.21520 | 104.00335 | 15530 ft | 329 kts | 140° |
| 2026-05-06 07:27 | -2.23316 | 104.01747 | 15167 ft | 327 kts | 140° |
| 2026-05-06 07:28 | -2.25099 | 104.03148 | 14817 ft | 325 kts | 140° |
| 2026-05-06 07:28 | -2.26877 | 104.04545 | 14463 ft | 324 kts | 140° |
| 2026-05-06 07:28 | -2.30399 | 104.07311 | 13769 ft | 320 kts | 141° |
| 2026-05-06 07:29 | -2.32144 | 104.08682 | 13409 ft | 318 kts | 141° |
| 2026-05-06 07:29 | -2.33884 | 104.10048 | 13032 ft | 317 kts | 141° |
| 2026-05-06 07:29 | -2.35608 | 104.11402 | 12660 ft | 315 kts | 141° |
| 2026-05-06 07:29 | -2.37323 | 104.12748 | 12300 ft | 313 kts | 141° |
| 2026-05-06 07:30 | -2.39008 | 104.14071 | 11953 ft | 311 kts | 141° |
| 2026-05-06 07:30 | -2.40700 | 104.15400 | 11606 ft | 309 kts | 141° |
| 2026-05-06 07:30 | -2.42382 | 104.16721 | 11256 ft | 307 kts | 141° |
| 2026-05-06 07:30 | -2.44053 | 104.18033 | 10960 ft | 303 kts | 141° |
| 2026-05-06 07:31 | -2.45680 | 104.19310 | 10871 ft | 292 kts | 141° |
| 2026-05-06 07:31 | -2.47257 | 104.20549 | 10690 ft | 285 kts | 141° |
| 2026-05-06 07:31 | -2.48809 | 104.21768 | 10456 ft | 281 kts | 141° |
| 2026-05-06 07:31 | -2.50340 | 104.22970 | 10192 ft | 279 kts | 141° |
| 2026-05-06 07:32 | -2.51868 | 104.24170 | 9881 ft | 279 kts | 141° |
| 2026-05-06 07:32 | -2.53392 | 104.25368 | 9582 ft | 278 kts | 141° |
| 2026-05-06 07:32 | -2.54910 | 104.26560 | 9278 ft | 277 kts | 141° |
| 2026-05-06 07:32 | -2.56418 | 104.27746 | 8966 ft | 275 kts | 141° |
| 2026-05-06 07:33 | -2.57918 | 104.28924 | 8670 ft | 273 kts | 141° |
| 2026-05-06 07:33 | -2.59414 | 104.30099 | 8220 ft | 272 kts | 141° |
| 2026-05-06 07:33 | -2.60882 | 104.31253 | 7780 ft | 264 kts | 141° |
| 2026-05-06 07:33 | -2.62305 | 104.32370 | 7292 ft | 256 kts | 141° |
| 2026-05-06 07:34 | -2.63689 | 104.33458 | 6813 ft | 250 kts | 141° |
| 2026-05-06 07:34 | -2.65039 | 104.34518 | 6350 ft | 244 kts | 141° |
| 2026-05-06 07:34 | -2.66359 | 104.35555 | 5914 ft | 237 kts | 141° |
| 2026-05-06 07:34 | -2.67632 | 104.36556 | 5540 ft | 229 kts | 141° |
| 2026-05-06 07:35 | -2.68870 | 104.37529 | 5173 ft | 224 kts | 141° |
| 2026-05-06 07:35 | -2.70084 | 104.38483 | 4812 ft | 221 kts | 141° |
| 2026-05-06 07:35 | -2.71286 | 104.39428 | 4431 ft | 220 kts | 141° |
| 2026-05-06 07:35 | -2.72480 | 104.40367 | 4135 ft | 216 kts | 141° |
| 2026-05-06 07:36 | -2.73647 | 104.41285 | 3875 ft | 211 kts | 141° |
| 2026-05-06 07:36 | -2.74785 | 104.42179 | 3626 ft | 206 kts | 141° |
| 2026-05-06 07:36 | -2.75899 | 104.43054 | 3387 ft | 201 kts | 141° |
| 2026-05-06 07:36 | -2.76986 | 104.43909 | 3248 ft | 197 kts | 141° |
| 2026-05-06 07:37 | -2.78064 | 104.44754 | 3143 ft | 197 kts | 142° |
| 2026-05-06 07:37 | -2.79136 | 104.45604 | 3051 ft | 196 kts | 139° |
| 2026-05-06 07:37 | -2.79924 | 104.46700 | 2941 ft | 194 kts | 117° |
| 2026-05-06 07:37 | -2.80526 | 104.47900 | 2861 ft | 193 kts | 116° |
| 2026-05-06 07:38 | -2.81083 | 104.49116 | 2770 ft | 191 kts | 114° |
| 2026-05-06 07:38 | -2.81601 | 104.50316 | 2683 ft | 186 kts | 113° |
| 2026-05-06 07:38 | -2.82100 | 104.51501 | 2593 ft | 183 kts | 113° |
| 2026-05-06 07:38 | -2.82586 | 104.52668 | 2475 ft | 180 kts | 113° |
| 2026-05-06 07:39 | -2.83063 | 104.53805 | 2388 ft | 176 kts | 114° |
| 2026-05-06 07:39 | -2.83531 | 104.54927 | 2343 ft | 175 kts | 114° |
| 2026-05-06 07:39 | -2.84008 | 104.56069 | 2244 ft | 179 kts | 113° |
| 2026-05-06 07:39 | -2.84479 | 104.57195 | 2148 ft | 170 kts | 113° |
| 2026-05-06 07:40 | -2.84922 | 104.58256 | 2048 ft | 160 kts | 112° |
| 2026-05-06 07:40 | -2.85345 | 104.59268 | 1919 ft | 158 kts | 113° |
| 2026-05-06 07:40 | -2.85767 | 104.60282 | 1755 ft | 156 kts | 113° |
| 2026-05-06 07:40 | -2.86188 | 104.61286 | 1534 ft | 157 kts | 112° |
| 2026-05-06 07:41 | -2.86601 | 104.62273 | 1325 ft | 150 kts | 113° |
| 2026-05-06 07:41 | -2.86997 | 104.63224 | 1122 ft | 149 kts | 112° |
| 2026-05-06 07:41 | -2.87390 | 104.64165 | 947 ft | 148 kts | 113° |
| 2026-05-06 07:41 | -2.87777 | 104.65091 | 775 ft | 144 kts | 113° |
| 2026-05-06 07:42 | -2.88168 | 104.66025 | 611 ft | 147 kts | 113° |
| 2026-05-06 07:42 | -2.88565 | 104.66978 | 417 ft | 149 kts | 114° |
| 2026-05-06 07:42 | -2.88965 | 104.67929 | 181 ft | 147 kts | 112° |
| 2026-05-06 07:42 | -2.89348 | 104.68850 | 26 ft | 138 kts | 113° |
| 2026-05-06 07:43 | -2.89632 | 104.69522 | 14 ft | 73 kts | 113° |
| 2026-05-06 07:43 | -2.89732 | 104.69759 | 18 ft | 3 kts | 112° |
| 2026-05-06 07:43 | -2.89755 | 104.69812 | 16 ft | 15 kts | 112° |
| 2026-05-06 07:43 | -2.89786 | 104.69889 | 19 ft | 19 kts | 112° |
| 2026-05-06 07:44 | -2.89766 | 104.69984 | 20 ft | 16 kts | 21° |
| 2026-05-06 07:44 | -2.89681 | 104.70043 | 21 ft | 7 kts | 88° |
| 2026-05-06 07:44 | -2.89702 | 104.70106 | 24 ft | 12 kts | 114° |
| 2026-05-06 07:44 | -2.89733 | 104.70194 | 23 ft | 12 kts | 86° |
| 2026-05-06 07:45 | -2.89722 | 104.70213 | 24 ft | 12 kts | 43° |
| 2026-05-06 07:45 | -2.89695 | 104.70228 | 27 ft | 12 kts | 25° |
| 2026-05-06 07:45 | -2.89653 | 104.70285 | 27 ft | 11 kts | 92° |
| 2026-05-06 07:45 | -2.89668 | 104.70337 | 25 ft | 0 kts | 112° |
| 2026-05-06 07:46 | -2.89657 | 104.70354 | 25 ft | 6 kts | 38° |
| 2026-05-06 07:46 | -2.89613 | 104.70375 | 27 ft | 7 kts | 24° |
| 2026-05-06 07:46 | -2.89592 | 104.70384 | 28 ft | 0 kts | 23° |